Overview Statistics Trail Chart Weather Telemetry Raw packets
 

This is the latest recevied telemetry packets stored in our database for station/object IZ4HBF-11. If no packets are shown the sender has not sent any telemetry packets the latest 10 day(s).

Telemetry packets is used to share measurements like repeteater parameters, battery voltage, radiation readings (or any other measurements).

<< 1 2 3 4 >>
Time Press* Temp.in* Hum* eGAS* Temp.out*
1778115488 1011 hPa 24.6 C deg 59.4 % 40 - 0 C deg
1778110044 1011.1 hPa 24.5 C deg 59.8 % 39 - 0 C deg
1778104630 1010.9 hPa 25 C deg 57.5 % 43 - 0 C deg
1778104627 1010.9 hPa 25 C deg 57.5 % 43 - 0 C deg
1778091906 1009.6 hPa 25.2 C deg 57.4 % 40 - 0 C deg
1778079264 1008.8 hPa 25.1 C deg 54 % 46 - 0 C deg
1778077380 1008.1 hPa 25.1 C deg 52.7 % 59 - 0 C deg
1778073783 1008.5 hPa 25.2 C deg 52.4 % 69 - 0 C deg
1778068383 1008.9 hPa 24.7 C deg 53.9 % 65 - 0 C deg
1778068305 1008.9 hPa 24.7 C deg 53.9 % 65 - 0 C deg
1778062881 1009.7 hPa 24.5 C deg 55.8 % 63 - 0 C deg
1778061066 1009.8 hPa 24.4 C deg 56.7 % 64 - 0 C deg
1778053798 1009.6 hPa 25.3 C deg 58.9 % 42 - 0 C deg
1778048351 1010.2 hPa 24.9 C deg 61.1 % 40 - 0 C deg
1778044705 1010.7 hPa 25 C deg 58.1 % 45 - 0 C deg
1778041098 1010.6 hPa 24.8 C deg 59.4 % 44 - 0 C deg
1778037447 1010.2 hPa 25 C deg 59.7 % 41 - 0 C deg
1778035632 1010.3 hPa 25.2 C deg 59.2 % 41 - 0 C deg
1778022972 1011.4 hPa 24.7 C deg 61.7 % 37 - 0 C deg
1778019354 1011.9 hPa 25.1 C deg 61.3 % 36 - 0 C deg
1778019354 1011.9 hPa 25.1 C deg 61.3 % 36 - 0 C deg
1778017593 1012.1 hPa 25 C deg 61.7 % 36 - 0 C deg
1778015757 1012.2 hPa 25 C deg 61.2 % 37 - 0 C deg
1778013897 1012.1 hPa 25 C deg 61 % 38 - 0 C deg
1778013875 1012.1 hPa 25 C deg 61 % 38 - 0 C deg
*Used Equation Coefficients:
Press: 0, 1, 0
Temp.in: 0, 1, 0
Hum: 0, 1, 0
eGAS: 0, 1, 0
Temp.out: 0, 1, 0

  • The parameter names for the analog channels will be Value1, Value2, Value3 (up to Value5) if station has not sent a PARAM-packet that specifies the parameter names for each analog channel.
  • Each analog value is a decimal number between 000 and 255 (according to APRS specifications). The receiver use the telemetry equation coefficientsto to restore the original sensor values. If no EQNS-packet with equation coefficients is sent we will show the values as is (this corresponds to the equation coefficients a=0, b=1 and c=0).
    The sent equation coefficients is used in the equation: a * value2 + b * value + c.
  • The units for the analog values will not be shown if station has not sent a UNIT-packet specifying what unit's to use.
  • The parameter names for the digital bits will be Bit1, Bit2, Bit3 (up to Bit8) if station has not sent a PARAM-packet that specifies the parameter names for each digital bit.
  • All bit labels will be named "On" if station has not sent a UNIT-packet that specifies the label of each bit.
  • A bit is considered to be On when the bit is 1 if station has not sent a BITS-packet that specifies another "Bit sense" (a BITS-packet specify the state of the bits that match the BIT labels)